createdAt,value
2023-04-10T00:01:36.563Z,8.18
2023-04-10T00:04:11.204Z,8.19
2023-04-10T00:06:42.915Z,8.20
2023-04-10T00:09:11.231Z,8.19
2023-04-10T00:11:39.484Z,8.17
2023-04-10T00:14:13.706Z,8.15
2023-04-10T00:16:45.154Z,8.13
2023-04-10T00:19:14.022Z,8.11
2023-04-10T00:21:42.549Z,8.09
2023-04-10T00:24:12.397Z,8.09
2023-04-10T00:26:49.689Z,8.07
2023-04-10T00:29:18.197Z,8.06
2023-04-10T00:31:51.622Z,8.04
2023-04-10T00:34:20.050Z,8.03
2023-04-10T00:36:48.360Z,8.01
2023-04-10T00:39:16.844Z,8.00
2023-04-10T00:41:51.279Z,7.99
2023-04-10T00:44:19.924Z,7.98
2023-04-10T00:46:48.469Z,7.98
2023-04-10T00:49:18.688Z,7.96
2023-04-10T00:51:48.189Z,7.95
2023-04-10T00:54:19.902Z,7.95
2023-04-10T00:56:48.595Z,7.94
2023-04-10T00:59:17.328Z,7.94
2023-04-10T01:01:48.697Z,7.94
2023-04-10T01:11:54.992Z,7.94
2023-04-10T01:14:51.191Z,7.91
2023-04-10T01:17:32.505Z,7.90
2023-04-10T01:20:11.108Z,7.87
2023-04-10T01:23:01.620Z,7.86
2023-04-10T01:25:44.344Z,7.83
2023-04-10T01:28:14.156Z,7.79
2023-04-10T01:30:42.840Z,7.76
2023-04-10T01:33:13.765Z,7.73
2023-04-10T01:35:43.486Z,7.70
2023-04-10T01:38:11.779Z,7.67
2023-04-10T01:40:42.468Z,7.64
2023-04-10T01:43:19.916Z,7.62
2023-04-10T01:45:52.252Z,7.61
2023-04-10T01:48:20.756Z,7.59
2023-04-10T01:50:49.197Z,7.57
2023-04-10T01:53:17.591Z,7.56
2023-04-10T01:55:46.121Z,7.56
2023-04-10T01:58:15.780Z,7.57
2023-04-10T02:00:44.513Z,7.57
2023-04-10T02:03:14.044Z,7.56
2023-04-10T02:06:07.454Z,7.54
2023-04-10T02:08:55.851Z,7.52
2023-04-10T02:12:02.198Z,7.49
2023-04-10T02:14:37.232Z,7.47
2023-04-10T02:17:05.538Z,7.46
2023-04-10T02:19:34.105Z,7.45
2023-04-10T02:22:05.224Z,7.45
2023-04-10T02:24:35.481Z,7.46
2023-04-10T02:27:03.923Z,7.47
2023-04-10T02:29:41.901Z,7.47
2023-04-10T02:32:11.010Z,7.47
2023-04-10T02:34:40.872Z,7.46
2023-04-10T02:37:09.097Z,7.46
2023-04-10T02:39:37.901Z,7.46
2023-04-10T02:42:06.170Z,7.47
2023-04-10T02:44:34.911Z,7.48
2023-04-10T02:47:03.343Z,7.50
2023-04-10T02:49:35.247Z,7.52
2023-04-10T02:52:10.036Z,7.52
2023-04-10T02:54:40.455Z,7.51
2023-04-10T02:57:09.348Z,7.51
2023-04-10T02:59:43.712Z,7.53
2023-04-10T03:02:12.334Z,7.54
2023-04-10T03:04:41.134Z,7.52
2023-04-10T03:07:10.892Z,7.52
2023-04-10T03:09:39.605Z,7.50
2023-04-10T03:12:08.190Z,7.50
2023-04-10T03:14:38.431Z,7.51
2023-04-10T03:17:07.637Z,7.51
2023-04-10T03:19:36.342Z,7.52
2023-04-10T03:22:05.237Z,7.50
2023-04-10T03:24:33.864Z,7.47
2023-04-10T03:27:04.267Z,7.45
2023-04-10T03:29:32.709Z,7.44
2023-04-10T03:32:01.677Z,7.44
2023-04-10T03:34:31.067Z,7.44
2023-04-10T03:36:59.276Z,7.46
2023-04-10T03:39:27.701Z,7.47
2023-04-10T03:41:56.440Z,7.47
2023-04-10T03:44:26.494Z,7.46
2023-04-10T03:46:56.568Z,7.45
2023-04-10T03:49:25.342Z,7.45
2023-04-10T03:51:56.911Z,7.46
2023-04-10T03:54:25.466Z,7.48
2023-04-10T03:56:53.737Z,7.52
2023-04-10T03:59:31.027Z,7.55
2023-04-10T04:02:07.731Z,7.58
2023-04-10T04:04:36.862Z,7.59
2023-04-10T04:07:36.035Z,7.63
2023-04-10T04:10:24.630Z,7.67
2023-04-10T04:13:16.138Z,7.71
2023-04-10T04:16:05.684Z,7.72
2023-04-10T04:18:46.885Z,7.74
2023-04-10T04:21:50.481Z,7.76
2023-04-10T04:24:33.706Z,7.80
2023-04-10T04:27:23.447Z,7.84
2023-04-10T04:30:07.774Z,7.87
2023-04-10T04:32:56.496Z,7.93
2023-04-10T04:35:43.939Z,7.98
2023-04-10T04:38:29.877Z,8.03
2023-04-10T04:41:06.663Z,8.08
2023-04-10T04:44:05.053Z,8.14
2023-04-10T04:47:12.312Z,8.20
2023-04-10T04:49:56.459Z,8.25
2023-04-10T04:52:45.131Z,8.32
2023-04-10T04:55:29.291Z,8.39
2023-04-10T04:58:10.717Z,8.45
2023-04-10T05:00:56.580Z,8.53
2023-04-10T05:03:51.669Z,8.61
2023-04-10T05:06:58.804Z,8.69
2023-04-10T05:09:58.616Z,8.76
2023-04-10T05:12:50.298Z,8.86
2023-04-10T05:15:29.334Z,8.98
2023-04-10T05:18:24.055Z,9.14
2023-04-10T05:21:05.117Z,9.31
2023-04-10T05:23:44.094Z,9.50
2023-04-10T05:26:31.358Z,9.74
2023-04-10T05:29:18.793Z,9.96
2023-04-10T05:32:07.304Z,10.19
2023-04-10T05:34:44.021Z,10.42
2023-04-10T05:37:31.656Z,10.58
2023-04-10T05:40:08.247Z,10.72
2023-04-10T05:42:55.851Z,10.88
2023-04-10T05:45:30.512Z,11.00
2023-04-10T05:48:11.916Z,11.11
2023-04-10T05:50:54.939Z,11.25
2023-04-10T05:53:52.649Z,11.39
2023-04-10T05:56:40.201Z,11.46
2023-04-10T05:59:34.389Z,11.54
2023-04-10T06:02:16.856Z,11.65
2023-04-10T06:04:47.120Z,11.76
2023-04-10T06:07:17.494Z,11.90
2023-04-10T06:09:46.536Z,12.06
2023-04-10T06:12:15.121Z,12.17
2023-04-10T06:14:48.062Z,12.31
2023-04-10T06:17:21.835Z,12.39
2023-04-10T06:19:50.695Z,12.47
2023-04-10T06:22:22.777Z,12.57
2023-04-10T06:24:56.194Z,12.65
2023-04-10T06:27:24.566Z,12.73
2023-04-10T06:29:57.019Z,12.81
2023-04-10T06:32:26.349Z,12.92
2023-04-10T06:34:54.626Z,13.04
2023-04-10T06:37:32.989Z,13.14
2023-04-10T06:40:04.989Z,13.23
2023-04-10T06:42:33.743Z,13.19
2023-04-10T06:45:09.340Z,13.12
2023-04-10T06:47:38.066Z,13.16
2023-04-10T06:50:15.606Z,13.27
2023-04-10T06:52:45.326Z,13.29
2023-04-10T06:55:13.584Z,13.22
2023-04-10T07:00:31.936Z,13.43
2023-04-10T07:03:01.426Z,13.48
2023-04-10T07:05:30.125Z,13.53
2023-04-10T07:07:59.232Z,13.59
2023-04-10T07:10:29.000Z,13.58
2023-04-10T07:13:00.385Z,13.54
2023-04-10T07:15:41.217Z,13.54
2023-04-10T07:18:10.503Z,13.64
2023-04-10T07:20:38.786Z,13.71
2023-04-10T07:23:12.648Z,13.69
2023-04-10T07:25:42.653Z,13.58
2023-04-10T07:28:10.917Z,13.49
2023-04-10T07:30:43.578Z,13.40
2023-04-10T07:33:12.252Z,13.36
2023-04-10T07:35:40.974Z,13.49
2023-04-10T07:38:09.377Z,13.61
2023-04-10T07:40:38.956Z,13.66
2023-04-10T07:43:07.190Z,13.76
2023-04-10T07:45:39.077Z,13.85
2023-04-10T07:48:07.537Z,13.87
2023-04-10T07:50:43.531Z,13.88
2023-04-10T07:53:12.892Z,13.94
2023-04-10T07:55:45.750Z,13.98
2023-04-10T07:58:14.143Z,14.04
2023-04-10T08:00:42.661Z,14.04
2023-04-10T08:03:12.685Z,14.07
2023-04-10T08:05:44.681Z,14.10
2023-04-10T08:08:13.390Z,14.03
2023-04-10T08:10:45.991Z,14.03
2023-04-10T08:13:16.550Z,14.12
2023-04-10T08:23:21.016Z,14.12
2023-04-10T08:25:49.573Z,14.06
2023-04-10T08:28:19.635Z,14.03
2023-04-10T08:30:48.584Z,14.07
2023-04-10T08:33:17.582Z,14.15
2023-04-10T08:35:49.000Z,14.28
2023-04-10T08:38:17.700Z,14.43
2023-04-10T08:40:45.864Z,14.54
2023-04-10T08:43:14.762Z,14.62
2023-04-10T08:45:43.712Z,14.71
2023-04-10T08:48:11.980Z,14.78
2023-04-10T08:50:43.165Z,14.84
2023-04-10T08:53:13.621Z,14.92
2023-04-10T08:55:44.932Z,14.91
2023-04-10T08:58:14.167Z,14.88
2023-04-10T09:00:42.389Z,14.90
2023-04-10T09:03:14.520Z,15.02
2023-04-10T09:05:44.210Z,15.05
2023-04-10T09:08:13.907Z,15.17
2023-04-10T09:10:42.339Z,15.40
2023-04-10T09:13:11.722Z,15.54
2023-04-10T09:15:57.462Z,15.60
2023-04-10T09:18:42.914Z,15.59
2023-04-10T09:21:14.331Z,15.60
2023-04-10T09:23:44.708Z,15.60
2023-04-10T09:26:25.553Z,15.55
2023-04-10T09:29:04.137Z,15.34
2023-04-10T09:31:33.315Z,15.10
2023-04-10T09:34:07.890Z,15.10
2023-04-10T09:36:37.748Z,15.20
2023-04-10T09:39:09.312Z,15.26
2023-04-10T09:42:07.586Z,15.35
2023-04-10T09:44:37.910Z,15.44
2023-04-10T09:47:13.791Z,15.58
2023-04-10T09:49:47.634Z,15.78
2023-04-10T09:52:28.499Z,15.85
2023-04-10T09:54:59.215Z,15.84
2023-04-10T09:57:29.632Z,15.90
2023-04-10T10:00:01.298Z,15.99
2023-04-10T10:02:37.537Z,16.04
2023-04-10T10:05:06.426Z,15.95
2023-04-10T10:07:38.328Z,15.91
2023-04-10T10:10:07.676Z,16.03
2023-04-10T10:12:42.604Z,16.23
2023-04-10T10:15:14.933Z,16.34
2023-04-10T10:17:52.522Z,16.31
2023-04-10T10:20:21.646Z,16.15
2023-04-10T10:22:50.698Z,15.99
2023-04-10T10:25:20.052Z,15.94
2023-04-10T10:27:49.976Z,15.75
2023-04-10T10:30:29.545Z,15.55
2023-04-10T10:33:00.435Z,15.57
2023-04-10T10:35:32.128Z,15.75
2023-04-10T10:38:04.493Z,15.89
2023-04-10T10:40:49.659Z,15.98
2023-04-10T10:43:26.328Z,15.88
2023-04-10T10:46:07.737Z,15.79
2023-04-10T10:48:36.607Z,15.74
2023-04-10T10:51:06.087Z,15.75
2023-04-10T10:53:41.672Z,15.74
2023-04-10T10:56:19.502Z,15.67
2023-04-10T10:58:50.433Z,15.80
2023-04-10T11:01:19.441Z,16.00
2023-04-10T11:03:48.286Z,16.01
2023-04-10T11:06:19.810Z,15.79
2023-04-10T11:08:53.255Z,15.54
2023-04-10T11:11:26.010Z,15.38
2023-04-10T11:13:57.130Z,15.36
2023-04-10T11:16:36.680Z,15.51
2023-04-10T11:21:59.747Z,15.75
2023-04-10T11:24:30.458Z,15.78
2023-04-10T11:26:58.843Z,15.84
2023-04-10T11:29:27.241Z,15.96
2023-04-10T11:32:02.847Z,15.96
2023-04-10T11:34:33.251Z,15.92
2023-04-10T11:37:03.243Z,16.00
2023-04-10T11:39:31.737Z,16.03
2023-04-10T11:42:02.039Z,15.89
2023-04-10T11:44:32.805Z,15.71
2023-04-10T11:47:01.679Z,15.65
2023-04-10T11:49:32.963Z,15.71
2023-04-10T11:52:01.642Z,15.75
2023-04-10T11:54:30.204Z,15.70
2023-04-10T11:57:05.908Z,15.61
2023-04-10T11:59:34.439Z,15.61
2023-04-10T12:04:27.506Z,15.96
2023-04-10T12:06:57.109Z,15.97
2023-04-10T12:09:26.541Z,15.82
2023-04-10T12:12:07.847Z,15.82
2023-04-10T12:14:41.404Z,15.99
2023-04-10T12:17:10.805Z,16.22
2023-04-10T12:19:53.170Z,16.46
2023-04-10T12:22:21.944Z,16.63
2023-04-10T12:24:53.696Z,16.69
2023-04-10T12:27:22.377Z,16.61
2023-04-10T12:29:52.078Z,16.64
2023-04-10T12:32:20.854Z,16.78
2023-04-10T12:34:57.678Z,16.85
2023-04-10T12:37:26.897Z,16.85
2023-04-10T12:40:07.571Z,16.79
2023-04-10T12:42:40.610Z,16.65
2023-04-10T12:45:10.428Z,16.54
2023-04-10T12:47:54.701Z,16.60
2023-04-10T12:50:28.923Z,16.69
2023-04-10T12:53:03.483Z,16.67
2023-04-10T12:55:31.848Z,16.69
2023-04-10T12:58:17.534Z,16.84
2023-04-10T13:00:46.972Z,16.86
2023-04-10T13:03:16.089Z,16.71
2023-04-10T13:05:46.360Z,16.52
2023-04-10T13:08:14.981Z,16.30
2023-04-10T13:10:43.916Z,16.23
2023-04-10T13:13:14.669Z,16.24
2023-04-10T13:15:43.358Z,16.22
2023-04-10T13:18:12.054Z,16.15
2023-04-10T13:20:40.962Z,16.06
2023-04-10T13:23:10.190Z,15.95
2023-04-10T13:25:43.085Z,15.91
2023-04-10T13:28:12.326Z,15.86
2023-04-10T13:30:42.495Z,15.80
2023-04-10T13:33:11.601Z,15.76
2023-04-10T13:35:40.631Z,15.71
2023-04-10T13:38:12.283Z,15.64
2023-04-10T13:40:44.057Z,15.65
2023-04-10T13:43:13.652Z,15.70
2023-04-10T13:45:41.973Z,15.73
2023-04-10T13:48:11.574Z,15.73
2023-04-10T13:50:39.837Z,15.70
2023-04-10T13:53:15.302Z,15.68
2023-04-10T13:55:47.806Z,15.64
2023-04-10T13:58:16.328Z,15.56
2023-04-10T14:00:47.546Z,15.47
2023-04-10T14:03:17.151Z,15.40
2023-04-10T14:05:45.957Z,15.36
2023-04-10T14:08:16.108Z,15.30
2023-04-10T14:10:46.316Z,15.26
2023-04-10T14:13:14.843Z,15.23
2023-04-10T14:15:45.453Z,15.23
2023-04-10T14:18:17.666Z,15.24
2023-04-10T14:20:46.327Z,15.24
2023-04-10T14:23:18.596Z,15.19
2023-04-10T14:25:47.510Z,15.15
2023-04-10T14:28:19.671Z,15.11
2023-04-10T14:30:49.025Z,15.08
2023-04-10T14:33:22.378Z,15.07
2023-04-10T14:35:50.816Z,15.05
2023-04-10T14:38:19.550Z,15.03
2023-04-10T14:40:50.999Z,15.02
2023-04-10T14:43:19.684Z,14.99
2023-04-10T14:45:49.519Z,14.97
2023-04-10T14:48:19.948Z,14.96
2023-04-10T14:50:49.685Z,14.94
2023-04-10T14:53:19.182Z,14.90
2023-04-10T14:55:47.430Z,14.87
2023-04-10T14:58:16.052Z,14.85
2023-04-10T15:00:44.939Z,14.82
2023-04-10T15:03:13.397Z,14.79
2023-04-10T15:05:42.010Z,14.77
2023-04-10T15:08:10.557Z,14.75
2023-04-10T15:10:38.794Z,14.73
2023-04-10T15:13:07.440Z,14.71
2023-04-10T15:15:38.460Z,14.68
2023-04-10T15:18:07.066Z,14.65
2023-04-10T15:20:36.479Z,14.62
2023-04-10T15:30:14.392Z,14.56
2023-04-10T15:32:45.090Z,14.52
2023-04-10T15:35:13.742Z,14.49
2023-04-10T15:37:42.325Z,14.48
2023-04-10T15:40:11.401Z,14.45
2023-04-10T15:42:40.417Z,14.43
2023-04-10T15:45:08.773Z,14.41
2023-04-10T15:47:37.398Z,14.39
2023-04-10T15:50:07.564Z,14.36
2023-04-10T15:52:38.853Z,14.33
2023-04-10T15:55:07.703Z,14.30
2023-04-10T15:57:37.976Z,14.27
2023-04-10T16:00:07.429Z,14.25
2023-04-10T16:02:36.078Z,14.21
2023-04-10T16:05:08.218Z,14.17
2023-04-10T16:07:38.586Z,14.15
2023-04-10T16:10:07.376Z,14.11
2023-04-10T16:12:39.160Z,14.08
2023-04-10T16:15:08.639Z,14.04
2023-04-10T16:17:37.140Z,14.01
2023-04-10T16:20:06.869Z,13.98
2023-04-10T16:22:36.743Z,13.95
2023-04-10T16:25:05.643Z,13.89
2023-04-10T16:27:34.790Z,13.85
2023-04-10T16:30:03.004Z,13.79
2023-04-10T16:32:35.058Z,13.73
2023-04-10T16:35:05.824Z,13.70
2023-04-10T16:37:34.437Z,13.68
2023-04-10T16:40:05.772Z,13.64
2023-04-10T16:42:35.167Z,13.60
2023-04-10T16:45:03.464Z,13.54
2023-04-10T16:47:32.264Z,13.51
2023-04-10T16:50:00.986Z,13.47
2023-04-10T16:52:32.880Z,13.45
2023-04-10T16:55:01.834Z,13.42
2023-04-10T16:57:30.479Z,13.39
2023-04-10T16:59:59.465Z,13.35
2023-04-10T17:02:29.895Z,13.32
2023-04-10T17:04:58.535Z,13.27
2023-04-10T17:07:30.511Z,13.23
2023-04-10T17:09:59.481Z,13.20
2023-04-10T17:12:27.772Z,13.16
2023-04-10T17:15:03.926Z,13.12
2023-04-10T17:17:34.529Z,13.07
2023-04-10T17:20:03.944Z,13.03
2023-04-10T17:22:34.609Z,13.00
2023-04-10T17:25:05.116Z,12.96
2023-04-10T17:27:34.932Z,12.94
2023-04-10T17:30:13.311Z,12.90
2023-04-10T17:32:45.054Z,12.87
2023-04-10T17:35:14.739Z,12.85
2023-04-10T17:37:45.681Z,12.81
2023-04-10T17:40:14.385Z,12.78
2023-04-10T17:42:45.298Z,12.75
2023-04-10T17:45:13.844Z,12.72
2023-04-10T17:47:43.470Z,12.70
2023-04-10T17:50:12.512Z,12.67
2023-04-10T17:52:41.020Z,12.66
2023-04-10T17:55:20.634Z,12.62
2023-04-10T17:57:53.209Z,12.58
2023-04-10T18:00:24.879Z,12.56
2023-04-10T18:03:00.132Z,12.54
2023-04-10T18:05:30.169Z,12.53
2023-04-10T18:08:00.664Z,12.51
2023-04-10T18:10:30.189Z,12.49
2023-04-10T18:12:58.928Z,12.47
2023-04-10T18:15:28.336Z,12.46
2023-04-10T18:17:57.091Z,12.43
2023-04-10T18:20:26.020Z,12.41
2023-04-10T18:22:54.545Z,12.38
2023-04-10T18:25:23.292Z,12.36
2023-04-10T18:28:13.752Z,12.33
2023-04-10T18:30:44.997Z,12.30
2023-04-10T18:33:19.705Z,12.28
2023-04-10T18:35:48.214Z,12.24
2023-04-10T18:38:17.706Z,12.22
2023-04-10T18:40:46.473Z,12.18
2023-04-10T18:43:15.640Z,12.16
2023-04-10T18:45:44.809Z,12.13
2023-04-10T18:48:13.940Z,12.11
2023-04-10T18:50:42.278Z,12.09
2023-04-10T18:53:11.243Z,12.06
2023-04-10T18:55:40.450Z,12.05
2023-04-10T18:58:08.759Z,12.03
2023-04-10T19:00:38.524Z,12.02
2023-04-10T19:03:08.247Z,12.01
2023-04-10T19:05:39.303Z,12.00
2023-04-10T19:08:08.042Z,12.00
2023-04-10T19:10:37.541Z,12.01
2023-04-10T19:13:09.720Z,12.00
2023-04-10T19:15:43.551Z,11.98
2023-04-10T19:18:14.036Z,11.96
2023-04-10T19:20:50.413Z,11.92
2023-04-10T19:23:22.769Z,11.89
2023-04-10T19:25:52.467Z,11.86
2023-04-10T19:28:21.131Z,11.83
2023-04-10T19:31:09.272Z,11.80
2023-04-10T19:33:45.336Z,11.76
2023-04-10T19:36:15.800Z,11.73
2023-04-10T19:38:48.906Z,11.70
2023-04-10T19:41:18.229Z,11.68
2023-04-10T19:43:47.034Z,11.66
2023-04-10T19:46:21.363Z,11.63
2023-04-10T19:48:52.210Z,11.60
2023-04-10T19:51:21.568Z,11.57
2023-04-10T19:53:51.715Z,11.56
2023-04-10T19:56:20.668Z,11.53
2023-04-10T19:58:49.242Z,11.51
2023-04-10T20:01:18.312Z,11.49
2023-04-10T20:03:48.440Z,11.49
2023-04-10T20:06:17.563Z,11.50
2023-04-10T20:08:48.381Z,11.50
2023-04-10T20:11:16.717Z,11.49
2023-04-10T20:13:50.432Z,11.49
2023-04-10T20:16:19.589Z,11.47
2023-04-10T20:18:48.138Z,11.47
2023-04-10T20:21:16.421Z,11.44
2023-04-10T20:23:47.983Z,11.41
2023-04-10T20:26:17.458Z,11.37
2023-04-10T20:28:45.802Z,11.34
2023-04-10T20:31:16.583Z,11.31
2023-04-10T20:33:45.515Z,11.26
2023-04-10T20:36:13.833Z,11.23
2023-04-10T20:38:43.126Z,11.20
2023-04-10T20:41:12.099Z,11.16
2023-04-10T20:43:40.829Z,11.13
2023-04-10T20:46:09.607Z,11.09
2023-04-10T20:48:38.379Z,11.04
2023-04-10T20:51:07.315Z,10.99
2023-04-10T20:53:36.040Z,10.92
2023-04-10T20:56:06.365Z,10.88
2023-04-10T20:58:35.507Z,10.84
2023-04-10T21:01:09.853Z,10.80
2023-04-10T21:03:39.637Z,10.78
2023-04-10T21:06:09.043Z,10.74
2023-04-10T21:08:39.138Z,10.71
2023-04-10T21:11:07.992Z,10.68
2023-04-10T21:13:38.365Z,10.64
2023-04-10T21:16:07.278Z,10.61
2023-04-10T21:18:36.148Z,10.58
2023-04-10T21:21:08.456Z,10.56
2023-04-10T21:23:37.201Z,10.55
2023-04-10T21:26:05.533Z,10.52
2023-04-10T21:28:35.543Z,10.51
2023-04-10T21:31:04.192Z,10.50
2023-04-10T21:33:33.112Z,10.47
2023-04-10T21:36:01.543Z,10.43
2023-04-10T21:38:30.378Z,10.40
2023-04-10T21:40:58.734Z,10.35
2023-04-10T21:43:29.774Z,10.30
2023-04-10T21:45:58.039Z,10.25
2023-04-10T21:48:28.065Z,10.19
2023-04-10T21:50:56.292Z,10.15
2023-04-10T21:53:25.916Z,10.12
2023-04-10T21:55:54.316Z,10.08
2023-04-10T21:58:24.929Z,10.04
2023-04-10T22:00:54.839Z,9.99
2023-04-10T22:03:24.400Z,9.94
2023-04-10T22:05:53.769Z,9.91
2023-04-10T22:08:22.428Z,9.87
2023-04-10T22:10:51.279Z,9.84
2023-04-10T22:13:30.435Z,9.79
2023-04-10T22:16:02.342Z,9.74
2023-04-10T22:18:31.709Z,9.69
2023-04-10T22:21:02.340Z,9.66
2023-04-10T22:23:31.422Z,9.63
2023-04-10T22:26:01.224Z,9.61
2023-04-10T22:28:30.406Z,9.59
2023-04-10T22:30:58.829Z,9.56
2023-04-10T22:33:27.079Z,9.52
2023-04-10T22:35:55.983Z,9.49
2023-04-10T22:38:25.119Z,9.46
2023-04-10T22:40:55.080Z,9.43
2023-04-10T22:43:23.700Z,9.42
2023-04-10T22:45:52.013Z,9.41
2023-04-10T22:48:21.471Z,9.40
2023-04-10T22:50:49.754Z,9.40
2023-04-10T22:53:19.296Z,9.41
2023-04-10T22:55:47.650Z,9.41
2023-04-10T22:58:16.065Z,9.41
2023-04-10T23:00:44.536Z,9.40
2023-04-10T23:03:12.923Z,9.38
2023-04-10T23:05:47.237Z,9.36
2023-04-10T23:08:16.066Z,9.34
2023-04-10T23:10:44.254Z,9.29
2023-04-10T23:13:12.856Z,9.26
2023-04-10T23:15:41.260Z,9.24
2023-04-10T23:18:09.779Z,9.22
2023-04-10T23:20:51.210Z,9.18
2023-04-10T23:23:20.562Z,9.17
2023-04-10T23:25:57.371Z,9.14
2023-04-10T23:28:26.289Z,9.11
2023-04-10T23:30:55.111Z,9.07
2023-04-10T23:33:23.469Z,9.05
2023-04-10T23:35:52.255Z,9.02
2023-04-10T23:38:22.428Z,9.00
2023-04-10T23:40:52.493Z,8.98
2023-04-10T23:43:21.467Z,8.96
2023-04-10T23:45:50.000Z,8.92
2023-04-10T23:48:20.205Z,8.88
2023-04-10T23:50:48.934Z,8.85
2023-04-10T23:53:17.729Z,8.81
2023-04-10T23:55:47.416Z,8.77
2023-04-10T23:58:16.060Z,8.74
